createdAt,value
2022-09-05T00:00:04.996Z,98.60
2022-09-05T00:02:49.161Z,98.70
2022-09-05T00:05:38.559Z,98.80
2022-09-05T00:08:27.333Z,99.00
2022-09-05T00:11:41.298Z,99.20
2022-09-05T00:14:14.302Z,99.30
2022-09-05T00:17:04.506Z,99.30
2022-09-05T00:24:23.244Z,99.60
2022-09-05T00:24:33.150Z,99.30
2022-09-05T00:25:58.517Z,99.70
2022-09-05T00:28:39.853Z,99.90
2022-09-05T00:31:55.175Z,99.90
2022-09-05T00:34:47.312Z,99.90
2022-09-05T00:37:32.268Z,99.90
2022-09-05T00:40:24.134Z,99.90
2022-09-05T00:42:59.747Z,99.90
2022-09-05T00:45:37.778Z,99.90
2022-09-05T00:48:28.808Z,99.90
2022-09-05T00:51:15.488Z,99.90
2022-09-05T00:53:58.360Z,99.90
2022-09-05T00:56:49.908Z,99.90
2022-09-05T01:00:02.649Z,99.90
2022-09-05T01:02:52.054Z,99.90
2022-09-05T01:05:33.321Z,99.90
2022-09-05T01:08:23.325Z,99.90
2022-09-05T01:11:00.968Z,99.90
2022-09-05T01:13:42.591Z,99.90
2022-09-05T01:16:25.171Z,99.90
2022-09-05T01:19:05.752Z,99.90
2022-09-05T01:21:52.490Z,99.90
2022-09-05T01:25:04.502Z,99.90
2022-09-05T01:29:14.527Z,99.90
2022-09-05T01:30:53.318Z,99.90
2022-09-05T01:33:28.562Z,99.90
2022-09-05T01:36:24.434Z,99.90
2022-09-05T01:39:51.565Z,99.90
2022-09-05T01:42:00.631Z,99.90
2022-09-05T01:44:47.339Z,99.90
2022-09-05T01:47:37.009Z,99.90
2022-09-05T01:50:20.334Z,99.90
2022-09-05T01:53:26.055Z,99.90
2022-09-05T01:56:25.591Z,99.90
2022-09-05T01:59:08.466Z,99.90
2022-09-05T02:02:02.125Z,99.90
2022-09-05T02:04:48.635Z,99.90
2022-09-05T02:07:31.758Z,99.90
2022-09-05T02:10:34.065Z,99.90
2022-09-05T02:13:14.625Z,99.90
2022-09-05T02:15:59.897Z,99.90
2022-09-05T02:18:52.569Z,99.90
2022-09-05T02:21:33.541Z,99.90
2022-09-05T02:24:27.347Z,99.90
2022-09-05T02:27:10.835Z,99.90
2022-09-05T02:30:11.808Z,99.90
2022-09-05T02:32:46.959Z,99.90
2022-09-05T02:35:27.608Z,99.90
2022-09-05T02:39:09.118Z,99.90
2022-09-05T02:45:12.933Z,99.90
2022-09-05T02:45:23.872Z,99.90
2022-09-05T02:46:58.692Z,99.90
2022-09-05T02:52:39.422Z,99.90
2022-09-05T02:57:26.759Z,99.90
2022-09-05T02:57:37.964Z,99.90
2022-09-05T02:59:08.452Z,99.90
2022-09-05T03:01:58.390Z,99.90
2022-09-05T03:04:37.359Z,99.90
2022-09-05T03:07:30.826Z,99.90
2022-09-05T03:10:26.794Z,99.90
2022-09-05T03:13:54.230Z,99.90
2022-09-05T03:17:04.842Z,99.90
2022-09-05T03:20:04.068Z,99.90
2022-09-05T03:23:17.369Z,99.90
2022-09-05T03:26:22.608Z,99.90
2022-09-05T03:29:21.528Z,99.90
2022-09-05T03:32:09.448Z,99.90
2022-09-05T03:35:09.606Z,99.90
2022-09-05T03:38:06.629Z,99.90
2022-09-05T03:40:57.213Z,99.90
2022-09-05T03:43:55.037Z,99.90
2022-09-05T03:46:40.755Z,99.90
2022-09-05T03:55:45.451Z,99.90
2022-09-05T03:57:05.423Z,99.90
2022-09-05T03:57:14.288Z,99.90
2022-09-05T03:59:35.927Z,99.90
2022-09-05T04:06:53.767Z,99.90
2022-09-05T04:08:19.347Z,99.90
2022-09-05T04:08:27.924Z,99.90
2022-09-05T04:11:01.411Z,99.90
2022-09-05T04:13:37.739Z,99.90
2022-09-05T04:16:15.288Z,99.90
2022-09-05T04:18:53.464Z,99.90
2022-09-05T04:21:28.949Z,99.90
2022-09-05T04:24:12.887Z,99.90
2022-09-05T04:27:09.669Z,99.90
2022-09-05T04:29:50.791Z,99.90
2022-09-05T04:32:31.802Z,99.90
2022-09-05T04:35:21.978Z,99.90
2022-09-05T04:37:59.658Z,99.90
2022-09-05T04:40:40.393Z,99.90
2022-09-05T04:43:16.251Z,99.90
2022-09-05T04:45:51.378Z,99.90
2022-09-05T04:48:27.565Z,99.90
2022-09-05T04:51:11.574Z,99.90
2022-09-05T04:54:08.143Z,99.90
2022-09-05T04:56:45.071Z,99.90
2022-09-05T05:03:24.811Z,99.90
2022-09-05T05:06:08.225Z,99.90
2022-09-05T05:06:18.515Z,99.90
2022-09-05T05:08:31.766Z,99.90
2022-09-05T05:17:58.767Z,99.90
2022-09-05T05:18:10.547Z,99.90
2022-09-05T05:18:13.756Z,99.90
2022-09-05T05:20:40.111Z,99.90
2022-09-05T05:22:59.997Z,99.90
2022-09-05T05:25:59.960Z,99.90
2022-09-05T05:28:34.624Z,99.90
2022-09-05T05:31:15.180Z,99.90
2022-09-05T05:33:50.237Z,99.90
2022-09-05T05:36:25.486Z,99.90
2022-09-05T05:39:01.025Z,99.90
2022-09-05T05:41:43.323Z,99.90
2022-09-05T05:44:16.237Z,99.90
2022-09-05T05:46:58.541Z,99.90
2022-09-05T05:49:56.852Z,99.90
2022-09-05T05:52:43.992Z,99.90
2022-09-05T05:55:51.487Z,99.90
2022-09-05T05:58:46.786Z,99.90
2022-09-05T06:01:55.615Z,99.90
2022-09-05T06:04:53.546Z,99.90
2022-09-05T06:07:50.979Z,99.90
2022-09-05T06:14:49.079Z,99.90
2022-09-05T06:15:01.766Z,99.90
2022-09-05T06:17:32.061Z,99.90
2022-09-05T06:22:09.314Z,99.90
2022-09-05T06:24:08.869Z,99.90
2022-09-05T06:27:06.043Z,99.90
2022-09-05T06:29:55.683Z,99.90
2022-09-05T06:32:38.296Z,99.90
2022-09-05T06:35:28.954Z,99.90
2022-09-05T06:38:10.819Z,99.90
2022-09-05T06:40:49.284Z,99.90
2022-09-05T06:43:38.014Z,99.90
2022-09-05T06:46:55.066Z,99.90
2022-09-05T06:49:30.818Z,99.90
2022-09-05T06:52:33.847Z,99.90
2022-09-05T06:55:31.251Z,99.90
2022-09-05T06:58:44.371Z,99.90
2022-09-05T07:01:50.064Z,99.90
2022-09-05T07:05:18.425Z,99.90
2022-09-05T07:07:27.556Z,99.90
2022-09-05T07:10:22.182Z,99.90
2022-09-05T07:13:03.686Z,99.90
2022-09-05T07:15:46.201Z,99.90
2022-09-05T07:18:27.225Z,99.90
2022-09-05T07:21:17.751Z,99.90
2022-09-05T07:24:09.650Z,99.90
2022-09-05T07:26:54.152Z,99.90
2022-09-05T07:29:29.853Z,99.90
2022-09-05T07:32:02.493Z,99.90
2022-09-05T07:34:37.197Z,99.90
2022-09-05T07:37:15.442Z,99.90
2022-09-05T07:39:52.397Z,99.90
2022-09-05T07:42:29.232Z,99.90
2022-09-05T07:45:05.864Z,99.90
2022-09-05T07:47:39.544Z,99.90
2022-09-05T07:52:48.802Z,99.90
2022-09-05T07:56:50.043Z,99.90
2022-09-05T07:57:03.847Z,99.90
2022-09-05T07:58:53.865Z,99.90
2022-09-05T08:01:25.468Z,99.90
2022-09-05T08:04:04.003Z,99.90
2022-09-05T08:07:45.911Z,98.30
2022-09-05T08:10:06.488Z,96.40
2022-09-05T08:12:27.876Z,94.40
2022-09-05T08:15:13.956Z,91.80
2022-09-05T08:17:56.551Z,90.20
2022-09-05T08:20:37.943Z,84.70
2022-09-05T08:23:17.656Z,78.60
2022-09-05T08:25:58.587Z,73.60
2022-09-05T08:28:38.957Z,72.90
2022-09-05T08:31:14.533Z,71.30
2022-09-05T08:33:48.393Z,67.40
2022-09-05T08:36:37.151Z,63.40
2022-09-05T08:39:11.703Z,60.90
2022-09-05T08:42:03.342Z,58.60
2022-09-05T08:46:36.227Z,56.70
2022-09-05T08:47:44.958Z,54.80
2022-09-05T08:50:43.511Z,53.60
2022-09-05T08:53:38.203Z,54.20
2022-09-05T08:56:22.419Z,53.50
2022-09-05T08:59:27.741Z,51.90
2022-09-05T09:02:45.079Z,52.10
2022-09-05T09:05:14.342Z,50.90
2022-09-05T09:07:51.989Z,51.30
2022-09-05T09:10:45.561Z,52.10
2022-09-05T09:13:29.594Z,51.30
2022-09-05T09:16:07.721Z,50.40
2022-09-05T09:18:48.617Z,51.00
2022-09-05T09:21:34.025Z,51.00
2022-09-05T09:24:13.943Z,50.10
2022-09-05T09:26:52.910Z,49.70
2022-09-05T09:29:28.412Z,50.30
2022-09-05T09:32:08.281Z,48.90
2022-09-05T09:34:59.441Z,48.60
2022-09-05T09:38:01.210Z,48.00
2022-09-05T09:41:02.352Z,46.80
2022-09-05T09:43:57.725Z,46.60
2022-09-05T09:46:39.096Z,46.30
2022-09-05T09:49:33.960Z,46.30
2022-09-05T09:52:24.755Z,47.00
2022-09-05T09:55:46.547Z,47.00
2022-09-05T09:58:38.145Z,45.70
2022-09-05T10:01:35.920Z,45.90
2022-09-05T10:10:33.266Z,45.50
2022-09-05T10:10:57.643Z,45.70
2022-09-05T10:11:50.026Z,45.00
2022-09-05T10:14:50.031Z,43.60
2022-09-05T10:17:42.076Z,43.00
2022-09-05T10:21:15.433Z,42.30
2022-09-05T10:24:28.772Z,41.20
2022-09-05T10:27:25.694Z,41.00
2022-09-05T10:30:25.269Z,41.30
2022-09-05T10:35:19.762Z,40.90
2022-09-05T10:36:25.488Z,41.30
2022-09-05T10:39:16.738Z,40.50
2022-09-05T10:41:51.182Z,40.20
2022-09-05T10:44:35.155Z,40.60
2022-09-05T10:47:26.807Z,40.60
2022-09-05T10:50:06.552Z,41.20
2022-09-05T10:52:40.545Z,41.80
2022-09-05T10:55:26.331Z,42.20
2022-09-05T10:58:04.186Z,42.80
2022-09-05T11:02:28.888Z,44.30
2022-09-05T11:03:50.837Z,42.30
2022-09-05T11:06:26.080Z,42.20
2022-09-05T11:09:14.365Z,42.20
2022-09-05T11:11:58.561Z,42.00
2022-09-05T11:14:39.292Z,41.30
2022-09-05T11:17:20.629Z,41.80
2022-09-05T11:19:59.908Z,40.80
2022-09-05T11:22:32.109Z,40.50
2022-09-05T11:25:05.331Z,40.80
2022-09-05T11:27:44.198Z,41.40
2022-09-05T11:30:29.587Z,41.40
2022-09-05T11:39:00.775Z,41.60
2022-09-05T11:39:52.868Z,42.00
2022-09-05T11:40:07.646Z,42.10
2022-09-05T11:42:30.219Z,42.00
2022-09-05T11:45:28.217Z,42.10
2022-09-05T11:48:30.441Z,41.90
2022-09-05T11:51:33.579Z,42.00
2022-09-05T11:54:38.334Z,41.90
2022-09-05T11:57:43.298Z,42.10
2022-09-05T12:00:31.594Z,42.20
2022-09-05T12:03:57.197Z,42.00
2022-09-05T12:07:15.630Z,42.40
2022-09-05T12:10:43.633Z,42.60
2022-09-05T12:13:31.966Z,42.60
2022-09-05T12:16:10.332Z,43.40
2022-09-05T12:18:54.431Z,43.50
2022-09-05T12:21:33.101Z,43.70
2022-09-05T12:25:15.715Z,43.60
2022-09-05T12:27:40.098Z,42.90
2022-09-05T12:30:09.267Z,44.00
2022-09-05T12:35:52.985Z,42.80
2022-09-05T12:36:12.351Z,42.70
2022-09-05T12:40:53.314Z,42.10
2022-09-05T12:42:15.231Z,42.70
2022-09-05T12:44:50.463Z,42.60
2022-09-05T12:47:24.145Z,42.50
2022-09-05T12:50:14.370Z,43.00
2022-09-05T12:52:47.987Z,43.40
2022-09-05T12:55:28.504Z,43.90
2022-09-05T13:02:55.689Z,44.20
2022-09-05T13:02:58.360Z,44.60
2022-09-05T13:04:17.512Z,44.50
2022-09-05T13:06:48.295Z,44.40
2022-09-05T13:09:27.776Z,44.40
2022-09-05T13:14:57.658Z,43.90
2022-09-05T13:15:23.114Z,44.00
2022-09-05T13:18:00.272Z,43.70
2022-09-05T13:20:36.724Z,43.00
2022-09-05T13:23:21.820Z,42.90
2022-09-05T13:25:59.296Z,43.30
2022-09-05T13:28:35.885Z,43.20
2022-09-05T13:37:55.321Z,44.00
2022-09-05T13:38:12.078Z,44.50
2022-09-05T13:38:30.881Z,44.90
2022-09-05T13:40:04.152Z,44.10
2022-09-05T13:42:40.861Z,43.80
2022-09-05T13:45:18.971Z,42.80
2022-09-05T13:47:55.443Z,43.20
2022-09-05T13:50:29.393Z,43.00
2022-09-05T13:53:05.315Z,43.50
2022-09-05T13:55:46.384Z,44.00
2022-09-05T13:58:24.359Z,44.10
2022-09-05T14:01:19.050Z,43.70
2022-09-05T14:07:46.355Z,44.20
2022-09-05T14:10:48.415Z,45.70
2022-09-05T14:13:24.525Z,45.60
2022-09-05T14:15:59.354Z,46.50
2022-09-05T14:18:53.706Z,46.70
2022-09-05T14:21:21.709Z,46.80
2022-09-05T14:23:56.800Z,46.40
2022-09-05T14:26:32.454Z,47.40
2022-09-05T14:29:15.998Z,46.30
2022-09-05T14:37:36.186Z,46.50
2022-09-05T14:38:00.659Z,47.00
2022-09-05T14:38:15.680Z,47.20
2022-09-05T14:41:07.976Z,47.50
2022-09-05T14:44:01.002Z,47.10
2022-09-05T14:46:49.841Z,47.30
2022-09-05T14:49:52.593Z,47.10
2022-09-05T14:52:29.316Z,47.20
2022-09-05T15:02:33.969Z,46.90
2022-09-05T15:02:42.071Z,47.20
2022-09-05T15:06:41.608Z,47.70
2022-09-05T15:12:24.880Z,47.30
2022-09-05T15:12:31.366Z,47.50
2022-09-05T15:15:19.284Z,47.50
2022-09-05T15:17:55.289Z,48.30
2022-09-05T15:20:38.053Z,48.10
2022-09-05T15:23:16.840Z,48.00
2022-09-05T15:25:50.744Z,48.00
2022-09-05T15:28:23.486Z,48.80
2022-09-05T15:31:02.098Z,48.80
2022-09-05T15:33:35.149Z,48.70
2022-09-05T15:36:07.783Z,49.20
2022-09-05T15:38:55.382Z,49.10
2022-09-05T15:41:27.785Z,49.20
2022-09-05T15:44:04.794Z,49.20
2022-09-05T15:46:49.456Z,49.50
2022-09-05T15:49:43.052Z,49.10
2022-09-05T15:52:34.202Z,49.50
2022-09-05T15:55:10.805Z,49.60
2022-09-05T15:57:44.295Z,49.90
2022-09-05T16:00:41.451Z,50.10
2022-09-05T16:07:41.162Z,50.10
2022-09-05T16:10:40.809Z,50.20
2022-09-05T16:10:46.271Z,50.20
2022-09-05T16:12:19.281Z,50.60
2022-09-05T16:16:33.729Z,50.50
2022-09-05T16:23:12.036Z,50.60
2022-09-05T16:23:28.260Z,50.70
2022-09-05T16:23:41.839Z,51.10
2022-09-05T16:26:24.897Z,51.20
2022-09-05T16:29:00.560Z,51.40
2022-09-05T16:31:40.633Z,51.50
2022-09-05T16:34:19.333Z,51.90
2022-09-05T16:37:07.851Z,52.00
2022-09-05T16:39:47.235Z,52.30
2022-09-05T16:42:30.822Z,52.80
2022-09-05T16:45:24.766Z,53.60
2022-09-05T16:48:03.508Z,56.00
2022-09-05T16:50:39.442Z,57.50
2022-09-05T16:53:50.832Z,58.70
2022-09-05T16:56:23.774Z,60.10
2022-09-05T16:58:58.933Z,64.20
2022-09-05T17:01:45.265Z,65.50
2022-09-05T17:04:21.525Z,70.00
2022-09-05T17:06:58.150Z,78.20
2022-09-05T17:09:30.538Z,90.10
2022-09-05T17:12:05.354Z,99.90
2022-09-05T17:14:38.747Z,99.90
2022-09-05T17:17:36.189Z,99.90
2022-09-05T17:20:14.745Z,99.90
2022-09-05T17:25:11.047Z,99.90
2022-09-05T17:29:24.826Z,99.90
2022-09-05T17:29:30.089Z,99.90
2022-09-05T17:31:59.311Z,99.90
2022-09-05T17:34:49.942Z,99.90
2022-09-05T17:37:44.684Z,99.90
2022-09-05T17:40:42.846Z,99.90
2022-09-05T17:43:28.243Z,99.90
2022-09-05T17:46:19.191Z,99.90
2022-09-05T17:49:17.949Z,99.90
2022-09-05T17:52:09.351Z,99.90
2022-09-05T17:54:49.537Z,99.90
2022-09-05T17:57:41.703Z,99.90
2022-09-05T18:00:50.247Z,99.90
2022-09-05T18:04:17.103Z,99.90
2022-09-05T18:07:00.474Z,99.90
2022-09-05T18:10:14.641Z,99.90
2022-09-05T18:13:31.305Z,99.90
2022-09-05T18:16:12.535Z,99.90
2022-09-05T18:19:31.899Z,99.90
2022-09-05T18:21:53.209Z,99.90
2022-09-05T18:24:40.754Z,99.90
2022-09-05T18:27:30.879Z,99.90
2022-09-05T18:30:30.860Z,99.90
2022-09-05T18:34:03.730Z,99.90
2022-09-05T18:36:18.797Z,99.90
2022-09-05T18:39:26.053Z,99.90
2022-09-05T18:42:14.776Z,99.90
2022-09-05T18:44:59.386Z,99.90
2022-09-05T18:47:34.071Z,99.90
2022-09-05T18:50:24.060Z,99.90
2022-09-05T18:53:09.976Z,99.90
2022-09-05T18:56:13.007Z,99.90
2022-09-05T18:58:54.306Z,99.90
2022-09-05T19:01:45.533Z,99.90
2022-09-05T19:04:40.253Z,99.90
2022-09-05T19:07:15.246Z,99.90
2022-09-05T19:10:13.229Z,99.90
2022-09-05T19:12:59.004Z,99.90
2022-09-05T19:15:36.886Z,99.90
2022-09-05T19:18:27.365Z,99.90
2022-09-05T19:21:16.703Z,99.90
2022-09-05T19:23:54.572Z,99.90
2022-09-05T19:26:25.508Z,99.90
2022-09-05T19:36:51.821Z,99.90
2022-09-05T19:36:55.954Z,99.90
2022-09-05T19:36:58.519Z,99.90
2022-09-05T19:37:44.531Z,99.90
2022-09-05T19:47:27.912Z,99.90
2022-09-05T19:47:43.859Z,99.90
2022-09-05T19:47:50.278Z,99.90
2022-09-05T19:49:12.837Z,99.90
2022-09-05T19:51:44.253Z,99.90
2022-09-05T19:54:27.833Z,99.90
2022-09-05T19:57:02.067Z,99.90
2022-09-05T19:59:38.390Z,99.90
2022-09-05T20:02:11.223Z,99.90
2022-09-05T20:04:53.336Z,99.90
2022-09-05T20:07:26.147Z,99.90
2022-09-05T20:09:58.494Z,99.90
2022-09-05T20:12:34.145Z,99.90
2022-09-05T20:15:23.053Z,99.90
2022-09-05T20:17:54.090Z,99.90
2022-09-05T20:20:30.785Z,99.90
2022-09-05T20:23:03.914Z,99.90
2022-09-05T20:25:39.922Z,99.90
2022-09-05T20:28:12.413Z,99.90
2022-09-05T20:30:46.122Z,99.90
2022-09-05T20:33:22.961Z,99.90
2022-09-05T20:42:15.680Z,99.90
2022-09-05T20:43:18.211Z,99.90
2022-09-05T20:43:32.030Z,99.90
2022-09-05T20:44:41.599Z,99.90
2022-09-05T20:54:05.763Z,99.90
2022-09-05T20:54:17.840Z,99.90
2022-09-05T20:54:26.711Z,99.90
2022-09-05T20:56:07.914Z,99.90
2022-09-05T20:58:40.471Z,99.90
2022-09-05T21:01:21.617Z,99.90
2022-09-05T21:04:00.737Z,99.90
2022-09-05T21:06:34.483Z,99.90
2022-09-05T21:09:24.508Z,99.90
2022-09-05T21:11:56.651Z,99.90
2022-09-05T21:14:30.056Z,99.90
2022-09-05T21:17:14.984Z,99.90
2022-09-05T21:19:53.214Z,99.90
2022-09-05T21:22:26.829Z,99.90
2022-09-05T21:25:43.662Z,99.90
2022-09-05T21:28:36.467Z,99.90
2022-09-05T21:31:15.156Z,99.90
2022-09-05T21:33:47.616Z,99.90
2022-09-05T21:36:19.829Z,99.90
2022-09-05T21:38:50.078Z,99.90
2022-09-05T21:41:22.934Z,99.90
2022-09-05T21:47:40.151Z,99.90
2022-09-05T21:47:51.316Z,99.90
2022-09-05T21:49:36.725Z,99.90
2022-09-05T21:52:08.336Z,99.90
2022-09-05T21:59:20.808Z,99.90
2022-09-05T21:59:21.115Z,99.90
2022-09-05T22:00:30.408Z,99.90
2022-09-05T22:03:00.914Z,99.90
2022-09-05T22:05:34.978Z,99.90
2022-09-05T22:08:06.498Z,99.90
2022-09-05T22:10:51.811Z,99.90
2022-09-05T22:13:25.428Z,99.90
2022-09-05T22:15:58.399Z,99.90
2022-09-05T22:18:29.178Z,99.90
2022-09-05T22:21:32.715Z,99.90
2022-09-05T22:23:54.083Z,99.90
2022-09-05T22:26:25.103Z,99.90
2022-09-05T22:28:58.517Z,99.90
2022-09-05T22:31:28.875Z,99.90
2022-09-05T22:33:59.219Z,99.90
2022-09-05T22:36:29.803Z,99.90
2022-09-05T22:38:59.724Z,99.90
2022-09-05T22:41:31.441Z,99.90
2022-09-05T22:44:04.535Z,99.90
2022-09-05T22:46:35.676Z,99.90
2022-09-05T22:49:06.175Z,99.90
2022-09-05T22:51:36.384Z,99.90
2022-09-05T22:54:06.667Z,99.90
2022-09-05T22:56:39.048Z,99.90
2022-09-05T22:59:15.112Z,99.90
2022-09-05T23:01:45.444Z,99.90
2022-09-05T23:04:15.706Z,99.90
2022-09-05T23:06:45.795Z,99.90
2022-09-05T23:09:16.311Z,99.90
2022-09-05T23:11:46.496Z,99.90
2022-09-05T23:14:19.226Z,99.90
2022-09-05T23:16:49.405Z,99.90
2022-09-05T23:19:19.646Z,99.90
2022-09-05T23:21:49.751Z,99.90
2022-09-05T23:24:19.999Z,99.90
2022-09-05T23:26:50.106Z,99.90
2022-09-05T23:29:22.866Z,99.90
2022-09-05T23:31:53.225Z,99.90
2022-09-05T23:34:23.579Z,99.90
2022-09-05T23:36:53.700Z,99.90
2022-09-05T23:39:23.944Z,99.90
2022-09-05T23:41:54.058Z,99.90
2022-09-05T23:44:26.826Z,99.90
2022-09-05T23:46:56.950Z,99.90
2022-09-05T23:49:27.275Z,99.90
2022-09-05T23:51:58.475Z,99.90
2022-09-05T23:54:28.625Z,99.90
2022-09-05T23:56:58.837Z,99.90
2022-09-05T23:59:31.903Z,99.90
